createdAt,value
2019-05-30T00:01:13.396Z,100.00
2019-05-30T00:03:41.459Z,100.00
2019-05-30T00:06:09.217Z,100.00
2019-05-30T00:08:36.991Z,100.00
2019-05-30T00:11:04.876Z,100.00
2019-05-30T00:13:32.734Z,100.00
2019-05-30T00:16:00.845Z,100.00
2019-05-30T00:18:28.735Z,100.00
2019-05-30T00:20:56.795Z,100.00
2019-05-30T00:23:24.718Z,100.00
2019-05-30T00:25:52.601Z,100.00
2019-05-30T00:28:20.360Z,100.00
2019-05-30T00:30:48.179Z,100.00
2019-05-30T00:33:15.934Z,100.00
2019-05-30T00:35:43.690Z,100.00
2019-05-30T00:38:11.812Z,100.00
2019-05-30T00:40:39.580Z,100.00
2019-05-30T00:43:07.340Z,100.00
2019-05-30T00:45:35.257Z,100.00
2019-05-30T00:48:04.268Z,100.00
2019-05-30T00:50:32.241Z,100.00
2019-05-30T00:53:00.724Z,100.00
2019-05-30T00:55:28.901Z,100.00
2019-05-30T00:57:56.793Z,100.00
2019-05-30T01:00:41.927Z,100.00
2019-05-30T01:02:54.496Z,100.00
2019-05-30T01:05:22.430Z,100.00
2019-05-30T01:07:50.289Z,100.00
2019-05-30T01:10:18.131Z,100.00
2019-05-30T01:12:46.319Z,100.00
2019-05-30T01:15:14.315Z,100.00
2019-05-30T01:17:42.070Z,100.00
2019-05-30T01:20:10.455Z,100.00
2019-05-30T01:22:38.246Z,100.00
2019-05-30T01:25:07.605Z,100.00
2019-05-30T01:27:35.638Z,100.00
2019-05-30T01:30:03.795Z,100.00
2019-05-30T01:32:31.646Z,100.00
2019-05-30T01:34:59.860Z,100.00
2019-05-30T01:37:27.769Z,100.00
2019-05-30T01:39:55.831Z,100.00
2019-05-30T01:42:23.980Z,100.00
2019-05-30T01:44:51.836Z,100.00
2019-05-30T01:47:19.607Z,100.00
2019-05-30T01:49:47.360Z,100.00
2019-05-30T01:52:15.147Z,100.00
2019-05-30T01:54:43.232Z,100.00
2019-05-30T01:57:11.151Z,100.00
2019-05-30T01:59:39.051Z,100.00
2019-05-30T02:02:09.102Z,100.00
2019-05-30T02:04:37.711Z,100.00
2019-05-30T02:07:05.535Z,100.00
2019-05-30T02:09:33.311Z,100.00
2019-05-30T02:12:01.235Z,100.00
2019-05-30T02:14:29.031Z,100.00
2019-05-30T02:16:57.505Z,100.00
2019-05-30T02:19:25.575Z,100.00
2019-05-30T02:21:53.347Z,100.00
2019-05-30T02:24:21.177Z,100.00
2019-05-30T02:26:49.587Z,100.00
2019-05-30T02:29:17.372Z,100.00
2019-05-30T02:31:45.132Z,100.00
2019-05-30T02:34:12.988Z,100.00
2019-05-30T02:36:41.098Z,100.00
2019-05-30T02:39:09.875Z,100.00
2019-05-30T02:41:38.432Z,100.00
2019-05-30T02:44:07.720Z,100.00
2019-05-30T02:46:35.766Z,100.00
2019-05-30T02:49:04.957Z,100.00
2019-05-30T02:51:33.455Z,100.00
2019-05-30T02:54:01.588Z,100.00
2019-05-30T02:56:30.057Z,100.00
2019-05-30T02:58:57.839Z,100.00
2019-05-30T03:01:25.599Z,100.00
2019-05-30T03:03:53.366Z,100.00
2019-05-30T03:06:21.153Z,100.00
2019-05-30T03:08:48.916Z,100.00
2019-05-30T03:11:16.857Z,100.00
2019-05-30T03:13:44.636Z,100.00
2019-05-30T03:16:13.626Z,100.00
2019-05-30T03:18:41.644Z,100.00
2019-05-30T03:21:11.114Z,100.00
2019-05-30T03:23:39.347Z,100.00
2019-05-30T03:26:09.778Z,100.00
2019-05-30T03:28:36.613Z,100.00
2019-05-30T03:31:10.504Z,100.00
2019-05-30T03:33:40.890Z,100.00
2019-05-30T03:36:09.100Z,100.00
2019-05-30T03:38:33.230Z,100.00
2019-05-30T03:41:01.015Z,100.00
2019-05-30T03:43:28.780Z,100.00
2019-05-30T03:45:57.106Z,100.00
2019-05-30T03:48:24.873Z,100.00
2019-05-30T03:50:52.643Z,100.00
2019-05-30T03:53:20.414Z,100.00
2019-05-30T03:55:50.174Z,100.00
2019-05-30T03:58:22.304Z,100.00
2019-05-30T04:00:51.905Z,100.00
2019-05-30T04:03:25.485Z,100.00
2019-05-30T04:05:55.583Z,100.00
2019-05-30T04:08:23.426Z,100.00
2019-05-30T04:10:51.196Z,100.00
2019-05-30T04:13:24.348Z,100.00
2019-05-30T04:15:52.260Z,100.00
2019-05-30T04:18:20.367Z,100.00
2019-05-30T04:20:48.155Z,100.00
2019-05-30T04:23:16.908Z,100.00
2019-05-30T04:25:45.404Z,100.00
2019-05-30T04:28:14.106Z,100.00
2019-05-30T04:30:42.384Z,100.00
2019-05-30T04:33:22.459Z,100.00
2019-05-30T04:35:40.736Z,100.00
2019-05-30T04:38:08.633Z,100.00
2019-05-30T04:40:36.438Z,100.00
2019-05-30T04:43:04.289Z,100.00
2019-05-30T04:45:32.048Z,100.00
2019-05-30T04:47:59.900Z,100.00
2019-05-30T04:50:27.678Z,100.00
2019-05-30T04:52:55.559Z,100.00
2019-05-30T04:55:23.388Z,100.00
2019-05-30T04:57:51.157Z,100.00
2019-05-30T05:00:19.459Z,100.00
2019-05-30T05:02:47.359Z,100.00
2019-05-30T05:05:20.891Z,100.00
2019-05-30T05:07:44.627Z,100.00
2019-05-30T05:10:13.947Z,100.00
2019-05-30T05:12:42.047Z,100.00
2019-05-30T05:15:09.979Z,100.00
2019-05-30T05:17:37.887Z,100.00
2019-05-30T05:20:06.352Z,100.00
2019-05-30T05:22:34.201Z,100.00
2019-05-30T05:25:01.987Z,100.00
2019-05-30T05:27:29.831Z,100.00
2019-05-30T05:29:57.607Z,100.00
2019-05-30T05:32:25.365Z,100.00
2019-05-30T05:34:53.153Z,100.00
2019-05-30T05:37:21.174Z,100.00
2019-05-30T05:39:49.374Z,100.00
2019-05-30T05:42:18.065Z,100.00
2019-05-30T05:44:46.187Z,100.00
2019-05-30T05:47:13.979Z,100.00
2019-05-30T05:49:41.768Z,100.00
2019-05-30T05:52:12.051Z,100.00
2019-05-30T05:54:39.331Z,100.00
2019-05-30T05:57:07.154Z,100.00
2019-05-30T05:59:35.271Z,100.00
2019-05-30T06:02:03.175Z,100.00
2019-05-30T06:04:30.937Z,100.00
2019-05-30T06:06:58.687Z,100.00
2019-05-30T06:09:26.456Z,100.00
2019-05-30T06:11:54.621Z,100.00
2019-05-30T06:14:22.495Z,100.00
2019-05-30T06:16:50.366Z,100.00
2019-05-30T06:19:19.141Z,100.00
2019-05-30T06:21:54.078Z,100.00
2019-05-30T06:24:17.640Z,100.00
2019-05-30T06:26:45.610Z,100.00
2019-05-30T06:29:13.442Z,100.00
2019-05-30T06:31:41.222Z,100.00
2019-05-30T06:34:08.988Z,100.00
2019-05-30T06:36:36.742Z,100.00
2019-05-30T06:39:06.548Z,100.00
2019-05-30T06:41:34.343Z,100.00
2019-05-30T06:44:05.571Z,100.00
2019-05-30T06:46:31.763Z,100.00
2019-05-30T06:49:00.028Z,100.00
2019-05-30T06:51:28.976Z,100.00
2019-05-30T06:53:56.960Z,100.00
2019-05-30T06:56:25.277Z,100.00
2019-05-30T06:58:53.127Z,100.00
2019-05-30T07:01:22.028Z,100.00
2019-05-30T07:03:50.124Z,100.00
2019-05-30T07:06:18.429Z,100.00
2019-05-30T07:08:46.551Z,100.00
2019-05-30T07:11:14.328Z,100.00
2019-05-30T07:13:42.102Z,100.00
2019-05-30T07:16:10.255Z,100.00
2019-05-30T07:18:38.059Z,100.00
2019-05-30T07:21:05.920Z,100.00
2019-05-30T07:23:34.046Z,100.00
2019-05-30T07:26:03.508Z,100.00
2019-05-30T07:28:32.044Z,100.00
2019-05-30T07:31:00.419Z,100.00
2019-05-30T07:33:28.202Z,100.00
2019-05-30T07:35:55.962Z,100.00
2019-05-30T07:38:24.332Z,100.00
2019-05-30T07:40:52.194Z,100.00
2019-05-30T07:43:19.973Z,100.00
2019-05-30T07:45:57.637Z,100.00
2019-05-30T07:48:17.265Z,100.00
2019-05-30T07:50:45.035Z,100.00
2019-05-30T07:53:12.809Z,100.00
2019-05-30T07:55:40.616Z,100.00
2019-05-30T07:58:08.380Z,100.00
2019-05-30T08:00:36.139Z,100.00
2019-05-30T08:03:04.188Z,100.00
2019-05-30T08:05:32.636Z,100.00
2019-05-30T08:08:00.559Z,100.00
2019-05-30T08:10:28.407Z,100.00
2019-05-30T08:12:56.163Z,100.00
2019-05-30T08:15:23.991Z,100.00
2019-05-30T08:17:52.186Z,100.00
2019-05-30T08:20:20.487Z,100.00
2019-05-30T08:22:48.231Z,100.00
2019-05-30T08:25:16.011Z,100.00
2019-05-30T08:27:43.768Z,100.00
2019-05-30T08:30:13.122Z,100.00
2019-05-30T08:32:40.923Z,100.00
2019-05-30T08:35:08.764Z,100.00
2019-05-30T08:37:37.276Z,100.00
2019-05-30T08:40:05.547Z,100.00
2019-05-30T08:42:33.317Z,100.00
2019-05-30T08:45:01.080Z,100.00
2019-05-30T08:47:29.819Z,100.00
2019-05-30T08:49:57.724Z,100.00
2019-05-30T08:52:25.568Z,100.00
2019-05-30T08:54:53.341Z,100.00
2019-05-30T08:57:21.112Z,100.00
2019-05-30T08:59:48.884Z,100.00
2019-05-30T09:02:16.689Z,100.00
2019-05-30T09:04:44.532Z,100.00
2019-05-30T09:07:12.304Z,100.00
2019-05-30T09:09:40.274Z,100.00
2019-05-30T09:12:08.113Z,96.67
2019-05-30T09:14:37.357Z,100.00
2019-05-30T09:17:06.207Z,91.11
2019-05-30T09:19:34.059Z,100.00
2019-05-30T09:22:01.822Z,86.34
2019-05-30T09:24:29.583Z,90.49
2019-05-30T09:26:57.343Z,80.70
2019-05-30T09:29:25.192Z,87.95
2019-05-30T09:31:52.964Z,94.36
2019-05-30T09:34:20.840Z,92.82
2019-05-30T09:36:49.124Z,100.00
2019-05-30T09:39:17.133Z,100.00
2019-05-30T09:41:45.729Z,100.00
2019-05-30T09:44:13.538Z,100.00
2019-05-30T09:46:42.482Z,95.16
2019-05-30T09:49:10.728Z,99.12
2019-05-30T09:51:38.485Z,100.00
2019-05-30T09:54:06.264Z,100.00
2019-05-30T09:56:34.564Z,100.00
2019-05-30T09:59:02.383Z,94.50
2019-05-30T10:01:30.174Z,89.07
2019-05-30T10:03:58.356Z,98.38
2019-05-30T10:06:29.578Z,89.93
2019-05-30T10:08:55.645Z,80.08
2019-05-30T10:11:23.494Z,93.59
2019-05-30T10:13:52.584Z,99.43
2019-05-30T10:16:20.733Z,97.37
2019-05-30T10:18:49.119Z,85.96
2019-05-30T10:21:17.344Z,97.35
2019-05-30T10:23:46.183Z,86.29
2019-05-30T10:26:14.685Z,92.73
2019-05-30T10:28:42.452Z,78.12
2019-05-30T10:31:10.225Z,82.81
2019-05-30T10:33:38.255Z,90.59
2019-05-30T10:36:06.035Z,86.65
2019-05-30T10:38:34.594Z,76.23
2019-05-30T10:41:02.355Z,80.34
2019-05-30T10:43:30.107Z,83.37
2019-05-30T10:45:57.883Z,99.79
2019-05-30T10:48:25.651Z,72.84
2019-05-30T10:50:54.434Z,80.39
2019-05-30T10:53:22.389Z,65.89
2019-05-30T10:55:50.234Z,81.72
2019-05-30T10:58:18.168Z,88.08
2019-05-30T11:00:53.109Z,78.61
2019-05-30T11:03:20.939Z,70.35
2019-05-30T11:05:52.865Z,69.80
2019-05-30T11:08:22.082Z,59.03
2019-05-30T11:10:50.619Z,57.67
2019-05-30T11:13:18.596Z,71.29
2019-05-30T11:15:46.874Z,49.44
2019-05-30T11:18:16.154Z,44.82
2019-05-30T11:20:43.916Z,42.53
2019-05-30T11:23:12.017Z,36.59
2019-05-30T11:25:40.455Z,30.01
2019-05-30T11:28:08.636Z,32.51
2019-05-30T11:30:36.401Z,28.17
2019-05-30T11:33:04.352Z,27.18
2019-05-30T11:35:32.524Z,30.71
2019-05-30T11:38:00.301Z,28.28
2019-05-30T11:40:28.059Z,22.53
2019-05-30T11:42:57.433Z,24.65
2019-05-30T11:45:25.607Z,23.00
2019-05-30T11:47:53.851Z,21.29
2019-05-30T11:50:21.711Z,20.43
2019-05-30T11:52:49.817Z,20.31
2019-05-30T11:55:17.926Z,21.15
2019-05-30T11:57:46.015Z,18.49
2019-05-30T12:00:14.209Z,21.62
2019-05-30T12:02:41.969Z,21.88
2019-05-30T12:05:09.795Z,21.51
2019-05-30T12:07:37.572Z,23.54
2019-05-30T12:10:05.458Z,23.26
2019-05-30T12:12:33.224Z,22.13
2019-05-30T12:15:01.640Z,22.28
2019-05-30T12:17:29.640Z,19.75
2019-05-30T12:19:57.612Z,18.89
2019-05-30T12:22:25.454Z,19.17
2019-05-30T12:24:53.857Z,19.49
2019-05-30T12:27:22.014Z,20.52
2019-05-30T12:29:49.780Z,18.69
2019-05-30T12:32:17.815Z,16.72
2019-05-30T12:34:45.567Z,17.49
2019-05-30T12:37:13.663Z,19.28
2019-05-30T12:39:41.500Z,20.34
2019-05-30T12:42:09.255Z,17.13
2019-05-30T12:44:37.035Z,16.56
2019-05-30T12:47:04.864Z,18.39
2019-05-30T12:49:32.619Z,16.80
2019-05-30T12:52:00.644Z,17.22
2019-05-30T12:54:28.483Z,18.05
2019-05-30T12:56:56.603Z,17.31
2019-05-30T12:59:24.725Z,15.79
2019-05-30T13:01:52.598Z,16.88
2019-05-30T13:04:20.638Z,16.20
2019-05-30T13:06:48.434Z,16.93
2019-05-30T13:09:16.284Z,16.93
2019-05-30T13:11:44.134Z,16.21
2019-05-30T13:14:12.010Z,15.82
2019-05-30T13:16:40.200Z,16.22
2019-05-30T13:19:08.308Z,17.78
2019-05-30T13:21:36.133Z,17.41
2019-05-30T13:24:03.956Z,18.42
2019-05-30T13:26:31.724Z,18.24
2019-05-30T13:29:00.318Z,17.42
2019-05-30T13:31:28.198Z,15.90
2019-05-30T13:33:56.786Z,15.34
2019-05-30T13:36:24.640Z,16.01
2019-05-30T13:38:52.445Z,15.12
2019-05-30T13:41:20.204Z,14.94
2019-05-30T13:43:47.977Z,15.69
2019-05-30T13:46:15.734Z,16.75
2019-05-30T13:48:43.487Z,16.90
2019-05-30T13:51:11.261Z,17.92
2019-05-30T13:53:39.303Z,15.61
2019-05-30T13:56:07.803Z,15.68
2019-05-30T13:58:35.617Z,15.40
2019-05-30T14:01:07.806Z,15.46
2019-05-30T14:03:32.854Z,14.10
2019-05-30T14:06:02.818Z,14.48
2019-05-30T14:08:41.047Z,14.58
2019-05-30T14:11:00.512Z,13.14
2019-05-30T14:13:28.388Z,14.63
2019-05-30T14:15:56.247Z,16.73
2019-05-30T14:18:23.995Z,15.26
2019-05-30T14:20:51.769Z,13.82
2019-05-30T14:23:19.533Z,14.75
2019-05-30T14:25:47.298Z,13.80
2019-05-30T14:28:15.072Z,15.70
2019-05-30T14:30:42.912Z,15.17
2019-05-30T14:33:10.682Z,15.75
2019-05-30T14:35:38.812Z,17.87
2019-05-30T14:38:06.674Z,17.12
2019-05-30T14:40:34.480Z,17.32
2019-05-30T14:43:03.227Z,20.73
2019-05-30T14:45:31.416Z,21.68
2019-05-30T14:47:59.187Z,22.54
2019-05-30T14:50:27.311Z,20.18
2019-05-30T14:52:55.096Z,18.53
2019-05-30T14:55:22.901Z,18.30
2019-05-30T14:57:50.743Z,17.95
2019-05-30T15:00:18.572Z,17.41
2019-05-30T15:02:46.492Z,17.77
2019-05-30T15:05:15.708Z,20.49
2019-05-30T15:07:43.667Z,22.36
2019-05-30T15:10:12.733Z,22.11
2019-05-30T15:12:40.786Z,22.49
2019-05-30T15:15:12.592Z,25.20
2019-05-30T15:17:38.225Z,27.76
2019-05-30T15:20:07.373Z,28.08
2019-05-30T15:22:35.251Z,28.24
2019-05-30T15:25:03.003Z,26.66
2019-05-30T15:27:30.795Z,26.51
2019-05-30T15:29:58.552Z,26.98
2019-05-30T15:32:26.334Z,28.66
2019-05-30T15:34:54.145Z,29.16
2019-05-30T15:37:22.291Z,25.74
2019-05-30T15:39:50.056Z,25.84
2019-05-30T15:42:17.919Z,24.83
2019-05-30T15:44:45.688Z,26.22
2019-05-30T15:47:14.532Z,28.25
2019-05-30T15:49:42.312Z,29.76
2019-05-30T15:52:11.630Z,31.32
2019-05-30T15:54:40.019Z,30.95
2019-05-30T15:57:09.117Z,31.46
2019-05-30T15:59:37.080Z,30.01
2019-05-30T16:02:04.924Z,26.27
2019-05-30T16:04:32.706Z,26.70
2019-05-30T16:07:00.743Z,27.42
2019-05-30T16:09:28.503Z,29.67
2019-05-30T16:11:56.323Z,30.93
2019-05-30T16:14:24.217Z,34.29
2019-05-30T16:16:52.043Z,33.03
2019-05-30T16:19:24.722Z,36.68
2019-05-30T16:21:49.615Z,36.25
2019-05-30T16:24:18.519Z,37.26
2019-05-30T16:26:46.406Z,41.33
2019-05-30T16:29:14.168Z,39.49
2019-05-30T16:31:42.036Z,39.61
2019-05-30T16:34:09.847Z,41.31
2019-05-30T16:36:37.618Z,41.15
2019-05-30T16:39:06.530Z,42.25
2019-05-30T16:41:34.296Z,44.04
2019-05-30T16:44:02.378Z,43.87
2019-05-30T16:46:30.156Z,47.67
2019-05-30T16:48:57.940Z,50.10
2019-05-30T16:51:26.794Z,47.98
2019-05-30T16:53:54.847Z,50.04
2019-05-30T16:56:23.562Z,49.98
2019-05-30T16:58:51.504Z,54.11
2019-05-30T17:01:19.827Z,55.20
2019-05-30T17:03:48.308Z,54.19
2019-05-30T17:06:16.069Z,54.49
2019-05-30T17:08:43.863Z,49.10
2019-05-30T17:11:11.635Z,50.81
2019-05-30T17:13:39.403Z,51.29
2019-05-30T17:16:07.223Z,57.33
2019-05-30T17:18:36.199Z,57.32
2019-05-30T17:21:04.048Z,59.98
2019-05-30T17:23:31.909Z,63.89
2019-05-30T17:25:59.695Z,70.57
2019-05-30T17:28:27.753Z,69.35
2019-05-30T17:30:55.507Z,66.50
2019-05-30T17:33:24.919Z,67.47
2019-05-30T17:35:53.108Z,62.53
2019-05-30T17:38:20.890Z,66.50
2019-05-30T17:40:49.739Z,70.84
2019-05-30T17:43:18.825Z,70.66
2019-05-30T17:45:46.663Z,74.70
2019-05-30T17:48:16.804Z,78.12
2019-05-30T17:50:43.926Z,82.94
2019-05-30T17:53:11.681Z,91.33
2019-05-30T17:55:39.840Z,92.29
2019-05-30T17:58:10.161Z,91.80
2019-05-30T18:00:37.128Z,96.08
2019-05-30T18:03:04.985Z,97.30
2019-05-30T18:05:33.008Z,99.46
2019-05-30T18:08:00.796Z,100.00
2019-05-30T18:10:29.033Z,100.00
2019-05-30T18:12:56.859Z,100.00
2019-05-30T18:15:27.636Z,100.00
2019-05-30T18:17:54.141Z,100.00
2019-05-30T18:20:23.183Z,100.00
2019-05-30T18:22:51.031Z,100.00
2019-05-30T18:25:19.155Z,100.00
2019-05-30T18:27:46.943Z,100.00
2019-05-30T18:30:14.875Z,100.00
2019-05-30T18:32:42.779Z,100.00
2019-05-30T18:35:13.911Z,100.00
2019-05-30T18:37:41.715Z,100.00
2019-05-30T18:40:09.787Z,100.00
2019-05-30T18:42:37.656Z,100.00
2019-05-30T18:45:05.754Z,100.00
2019-05-30T18:47:33.552Z,100.00
2019-05-30T18:50:01.342Z,100.00
2019-05-30T18:52:30.353Z,100.00
2019-05-30T18:54:58.271Z,100.00
2019-05-30T18:57:26.615Z,100.00
2019-05-30T18:59:54.600Z,100.00
2019-05-30T19:02:22.366Z,100.00
2019-05-30T19:04:50.142Z,100.00
2019-05-30T19:07:17.961Z,100.00
2019-05-30T19:09:45.850Z,100.00
2019-05-30T19:12:13.612Z,100.00
2019-05-30T19:14:41.388Z,100.00
2019-05-30T19:17:09.271Z,100.00
2019-05-30T19:19:37.062Z,100.00
2019-05-30T19:22:07.693Z,100.00
2019-05-30T19:24:35.487Z,100.00
2019-05-30T19:27:03.260Z,100.00
2019-05-30T19:29:31.142Z,100.00
2019-05-30T19:31:58.913Z,100.00
2019-05-30T19:34:26.755Z,100.00
2019-05-30T19:36:54.523Z,100.00
2019-05-30T19:39:22.327Z,100.00
2019-05-30T19:41:56.743Z,100.00
2019-05-30T19:44:19.603Z,100.00
2019-05-30T19:46:47.385Z,100.00
2019-05-30T19:49:15.165Z,100.00
2019-05-30T19:51:43.023Z,100.00
2019-05-30T19:54:10.840Z,100.00
2019-05-30T19:56:40.838Z,100.00
2019-05-30T19:59:08.135Z,100.00
2019-05-30T20:01:35.932Z,100.00
2019-05-30T20:04:03.802Z,100.00
2019-05-30T20:06:32.478Z,100.00
2019-05-30T20:09:00.350Z,100.00
2019-05-30T20:11:28.134Z,100.00
2019-05-30T20:13:55.998Z,100.00
2019-05-30T20:16:23.788Z,100.00
2019-05-30T20:18:51.570Z,100.00
2019-05-30T20:21:19.568Z,100.00
2019-05-30T20:23:54.662Z,100.00
2019-05-30T20:26:16.877Z,100.00
2019-05-30T20:28:44.663Z,100.00
2019-05-30T20:31:12.435Z,100.00
2019-05-30T20:33:40.585Z,100.00
2019-05-30T20:36:08.570Z,100.00
2019-05-30T20:38:36.567Z,100.00
2019-05-30T20:41:04.348Z,100.00
2019-05-30T20:43:33.299Z,100.00
2019-05-30T20:46:01.180Z,100.00
2019-05-30T20:48:28.941Z,100.00
2019-05-30T20:50:56.736Z,100.00
2019-05-30T20:53:24.887Z,100.00
2019-05-30T20:55:52.665Z,100.00
2019-05-30T20:58:20.505Z,100.00
2019-05-30T21:00:48.643Z,100.00
2019-05-30T21:03:16.404Z,100.00
2019-05-30T21:05:44.216Z,100.00
2019-05-30T21:08:12.971Z,100.00
2019-05-30T21:10:41.343Z,100.00
2019-05-30T21:13:09.212Z,100.00
2019-05-30T21:15:37.558Z,100.00
2019-05-30T21:18:06.297Z,100.00
2019-05-30T21:20:34.254Z,100.00
2019-05-30T21:23:02.028Z,100.00
2019-05-30T21:25:29.820Z,100.00
2019-05-30T21:27:57.946Z,100.00
2019-05-30T21:30:26.068Z,100.00
2019-05-30T21:32:54.296Z,100.00
2019-05-30T21:35:22.828Z,100.00
2019-05-30T21:37:50.910Z,100.00
2019-05-30T21:40:18.882Z,100.00
2019-05-30T21:43:02.754Z,100.00
2019-05-30T21:45:16.519Z,100.00
2019-05-30T21:47:44.816Z,100.00
2019-05-30T21:50:13.283Z,100.00
2019-05-30T21:52:41.911Z,100.00
2019-05-30T21:55:09.853Z,100.00
2019-05-30T21:57:37.879Z,100.00
2019-05-30T22:00:06.946Z,100.00
2019-05-30T22:02:34.837Z,100.00
2019-05-30T22:05:03.114Z,100.00
2019-05-30T22:07:31.185Z,100.00
2019-05-30T22:09:58.975Z,100.00
2019-05-30T22:12:26.960Z,100.00
2019-05-30T22:14:54.755Z,100.00
2019-05-30T22:17:22.752Z,100.00
2019-05-30T22:19:50.626Z,100.00
2019-05-30T22:22:18.742Z,100.00
2019-05-30T22:24:48.399Z,100.00
2019-05-30T22:27:16.464Z,100.00
2019-05-30T22:29:44.360Z,100.00
2019-05-30T22:32:12.195Z,100.00
2019-05-30T22:34:39.945Z,100.00
2019-05-30T22:37:07.722Z,100.00
2019-05-30T22:39:35.574Z,100.00
2019-05-30T22:42:03.624Z,100.00
2019-05-30T22:44:31.407Z,100.00
2019-05-30T22:46:59.179Z,100.00
2019-05-30T22:49:26.933Z,100.00
2019-05-30T22:51:54.735Z,100.00
2019-05-30T22:54:22.503Z,100.00
2019-05-30T22:56:51.437Z,100.00
2019-05-30T22:59:19.339Z,100.00
2019-05-30T23:01:47.111Z,100.00
2019-05-30T23:04:14.871Z,100.00
2019-05-30T23:06:42.651Z,100.00
2019-05-30T23:09:10.419Z,100.00
2019-05-30T23:11:38.267Z,100.00
2019-05-30T23:14:06.475Z,100.00
2019-05-30T23:16:34.518Z,100.00
2019-05-30T23:19:02.538Z,100.00
2019-05-30T23:21:30.334Z,100.00
2019-05-30T23:23:58.122Z,100.00
2019-05-30T23:26:25.890Z,100.00
2019-05-30T23:28:53.838Z,100.00
2019-05-30T23:31:21.694Z,100.00
2019-05-30T23:33:50.296Z,100.00
2019-05-30T23:36:18.138Z,100.00
2019-05-30T23:38:45.904Z,100.00
2019-05-30T23:41:13.686Z,100.00
2019-05-30T23:43:55.138Z,100.00
2019-05-30T23:46:11.266Z,100.00
2019-05-30T23:48:39.044Z,100.00
2019-05-30T23:51:07.127Z,100.00
2019-05-30T23:53:34.894Z,100.00
2019-05-30T23:56:02.653Z,100.00
2019-05-30T23:58:30.596Z,100.00
